Airfield :
LOGIN :

Register | Disclaimer

   EN    FR    IT 

 










Legend :    VFR   Marginal VFR   IFR   Intensive IFR   Very Intensive IFR
Visi :
Ceiling :
>= 8 km
>= 3000ft
5 to 8 km
1000 to 3000 ft
1500m to 5 km
500 to 1000 ft
800 to 1500m
200 to 500 ft
< 800m
< 200 ft
Symbols :   Thunderstorms  Fog  Heavy snow  Heavy precipitations  Wind > 20 kt
SIGMETs :     Misc.  Thunderstorms  Icing  Turbulence  Mountain Waves  Volcanic Ashes






- Airport Elevation : 348 ft
- IATA code : STN


EGSS - London Stansted

CURRENT METAR :
  • 071150Z AUTO 23009KT 9999 OVC032 09/06 Q1013

EXPIRED METARs :
  • 071120Z AUTO 24009KT 9999 OVC032 09/06 Q1014
  • 071050Z AUTO 24008KT 9999 OVC034 08/06 Q1014
  • 071020Z AUTO 23009KT 9999 OVC036 08/06 Q1014
  • 070950Z AUTO 22008KT 9999 OVC036 07/06 Q1014
  • 070920Z AUTO 23006KT 9999 OVC037 07/06 Q1014

TAF TAF EGSS
Valid from the 07 at 12:00 until the 08 at 18:00 UTC


071103Z 0712/0818 26010KT 9999 SCT022
BECMG 0712/0715 20012KT
TEMPO 0719/0801 BKN008
BECMG 0721/0724 21020G30KT
BECMG 0801/0804 4000 RA BKN010
PROB30
TEMPO 0802/0805 +RA BKN007
BECMG 0804/0807 25015G25KT 9999 NSW FEW025
PROB30
TEMPO 0812/0818 24020G35KT 4000 +SHRA BKN014
ATIS : +44 1279 669 325



MET'MAP, your aeronautical weather chart ! - Copyright ORBIFLY December 2007 - Disclaimer

ORBIFLY MET'MAP TEAM :

Programming & Development : Alexandra Zaïnal
Concept & original design : Baudouin d'Aumeries
Assistance for programming : Marc-Olivier Méhu
Technical & hardware support : Manuel Goepfert

Contact : metmap@orbifly.com




SOURCES & CREDITS :

   NOAA